Time;durP1;ratioP1;P1;durP2;ratioP2;P2;SDS_P1;SDS_P2;PMS_P1;PMS_P2;Temp;Humidity;BMP_temperature;BMP_pressure;BME280_temperature;BME280_humidity;BME280_pressure;Samples;Min_cycle;Max_cycle;Signal;HPM_P1;HPM_P2
2021/04/13 00:01:12;;;;;;;9.70;5.68;;;;;;;-1.75;82.86;100717.78;4985593;28;20164;-62
2021/04/13 00:03:41;;;;;;;7.78;4.75;;;;;;;-1.65;83.32;100715.22;4993213;28;20436;-62
2021/04/13 00:06:06;;;;;;;9.13;5.85;;;;;;;-1.75;83.14;100713.38;4992789;28;20085;-62
2021/04/13 00:08:32;;;;;;;9.52;6.60;;;;;;;-1.81;83.58;100719.13;4991870;28;20396;-61
2021/04/13 00:11:00;;;;;;;9.23;7.03;;;;;;;-1.78;83.44;100718.03;4991600;28;20053;-62
2021/04/13 00:13:27;;;;;;;8.05;5.90;;;;;;;-1.79;84.39;100724.25;4992872;28;20097;-62
2021/04/13 00:15:53;;;;;;;8.90;6.50;;;;;;;-1.82;83.52;100725.34;4984725;28;20038;-62
2021/04/13 00:18:27;;;;;;;7.88;6.50;;;;;;;-1.87;83.66;100717.00;5012670;28;20469;-62
2021/04/13 00:20:56;;;;;;;8.45;5.60;;;;;;;-1.91;83.54;100722.63;5012129;28;20034;-62
2021/04/13 00:23:21;;;;;;;7.05;5.43;;;;;;;-2.00;83.88;100719.81;5011862;28;20033;-62
2021/04/13 00:25:53;;;;;;;6.97;5.53;;;;;;;-1.94;84.65;100717.63;5015986;28;20041;-62
2021/04/13 00:28:25;;;;;;;7.82;5.90;;;;;;;-2.03;84.29;100712.16;5015172;28;20396;-62
2021/04/13 00:30:53;;;;;;;10.05;6.97;;;;;;;-1.97;87.80;100710.84;5015949;28;20042;-61
2021/04/13 00:33:24;;;;;;;8.23;6.50;;;;;;;-1.77;84.51;100714.47;5014836;28;20469;-62
2021/04/13 00:36:08;;;;;;;;;;;;;;;-1.83;83.59;100720.22;5014792;28;20050;-62
2021/04/13 00:38:40;;;;;;;8.10;5.95;;;;;;;-1.88;84.03;100712.69;5015989;28;19967;-62
2021/04/13 00:41:08;;;;;;;7.82;5.82;;;;;;;-2.06;84.24;100712.41;5015747;28;20034;-62
2021/04/13 00:43:33;;;;;;;10.00;6.80;;;;;;;-2.02;84.32;100721.72;4998742;28;20030;-62
2021/04/13 00:45:59;;;;;;;8.27;6.32;;;;;;;-2.13;83.64;100721.75;5014061;28;20120;-62
2021/04/13 00:48:30;;;;;;;8.55;6.38;;;;;;;-2.13;86.65;100716.50;5014733;28;20014;-62
2021/04/13 00:51:03;;;;;;;7.40;5.85;;;;;;;-2.11;84.99;100719.84;5014339;28;20045;-62
2021/04/13 00:53:29;;;;;;;10.23;6.45;;;;;;;-2.18;84.51;100716.03;4998623;28;20473;-62
2021/04/13 00:55:56;;;;;;;7.72;6.25;;;;;;;-2.25;84.28;100720.94;4997810;28;20068;-62
2021/04/13 00:58:28;;;;;;;8.70;6.50;;;;;;;-2.33;85.29;100719.88;4998218;28;20164;-62
2021/04/13 01:01:00;;;;;;;8.60;6.07;;;;;;;-2.42;85.02;100717.06;5015143;28;20046;-62
2021/04/13 01:03:30;;;;;;;9.30;6.35;;;;;;;-2.32;85.71;100716.28;5014518;28;20395;-62
2021/04/13 01:05:56;;;;;;;8.93;6.60;;;;;;;-2.28;86.46;100715.94;5014002;28;20049;-62
2021/04/13 01:08:28;;;;;;;9.27;6.30;;;;;;;-2.12;86.84;100712.91;5015558;28;20109;-62
2021/04/13 01:10:54;;;;;;;9.30;7.00;;;;;;;-2.00;88.69;100713.69;5013710;28;20121;-61
2021/04/13 01:13:23;;;;;;;8.95;6.22;;;;;;;-2.24;84.08;100713.91;4997474;28;20137;-62
2021/04/13 01:15:50;;;;;;;8.88;6.40;;;;;;;-2.26;85.72;100707.94;5013528;28;20106;-62
2021/04/13 01:18:22;;;;;;;8.70;6.28;;;;;;;-2.30;85.10;100714.38;5014078;28;20033;-62
2021/04/13 01:20:49;;;;;;;9.82;6.40;;;;;;;-2.30;84.45;100715.22;5013467;28;20042;-61
2021/04/13 01:25:45;;;;;;;9.80;6.95;;;;;;;-2.25;85.73;100714.84;4997578;28;20077;-62
2021/04/13 01:28:19;;;;;;;9.30;7.30;;;;;;;-2.15;84.51;100712.31;5013768;28;20030;-62
2021/04/13 01:30:49;;;;;;;9.55;7.38;;;;;;;-2.07;87.46;100709.91;5013451;28;20148;-62
2021/04/13 01:33:14;;;;;;;9.50;7.27;;;;;;;-2.04;84.87;100715.75;4997942;28;20112;-62
2021/04/13 01:35:45;;;;;;;8.90;6.80;;;;;;;-2.01;84.62;100707.63;5014025;28;20359;-62
2021/04/13 01:38:27;;;;;;;10.32;7.60;;;;;;;-1.88;85.36;100712.69;5014754;28;20057;-62
2021/04/13 01:43:34;;;;;;;14.57;8.32;;;;;;;-1.74;85.27;100714.22;5013611;28;20048;-62
2021/04/13 01:46:00;;;;;;;9.80;7.55;;;;;;;-1.75;83.26;100712.53;5013012;28;20119;-62
2021/04/13 01:48:25;;;;;;;11.32;8.63;;;;;;;-1.67;84.70;100712.75;5013324;28;20030;-61
2021/04/13 01:50:58;;;;;;;9.48;7.28;;;;;;;-2.07;83.15;100710.75;4996448;28;20042;-62
2021/04/13 01:53:25;;;;;;;9.95;7.47;;;;;;;-2.10;83.52;100713.59;5014559;28;20037;-62
2021/04/13 01:55:51;;;;;;;9.63;7.50;;;;;;;-2.14;85.38;100719.25;4996759;28;20444;-62
2021/04/13 01:58:37;;;;;;;12.68;8.63;;;;;;;-2.20;85.19;100712.69;5014503;28;20065;-62
2021/04/13 02:01:13;;;;;;;10.88;7.88;;;;;;;-2.26;86.72;100723.69;5012694;28;20054;-62
2021/04/13 02:04:02;;;;;;;11.07;8.27;;;;;;;-2.23;87.09;100720.81;5013243;28;20232;-62
2021/04/13 02:06:31;;;;;;;11.63;7.03;;;;;;;-2.29;84.63;100721.31;5012939;28;20385;-62
2021/04/13 02:09:35;;;;;;;11.43;7.40;;;;;;;-2.32;87.87;100721.53;4997217;28;20075;-62
2021/04/13 02:12:10;;;;;;;11.32;8.35;;;;;;;-2.51;86.13;100722.19;5013616;28;20075;-62
2021/04/13 02:14:48;;;;;;;10.63;8.30;;;;;;;-2.59;86.15;100722.81;5013192;28;20137;-61
2021/04/13 02:17:27;;;;;;;10.88;7.97;;;;;;;-2.45;85.40;100726.94;5013773;28;20157;-62
2021/04/13 02:19:54;;;;;;;11.85;8.35;;;;;;;-2.40;85.66;100728.28;5012470;28;20395;-61
2021/04/13 02:22:20;;;;;;;11.63;8.57;;;;;;;-2.47;85.83;100728.84;5012437;28;20092;-61
2021/04/13 02:24:45;;;;;;;11.82;9.20;;;;;;;-2.60;84.97;100729.00;4996738;28;20034;-62
2021/04/13 02:27:12;;;;;;;12.15;9.57;;;;;;;-2.66;86.45;100724.22;4996026;28;20057;-62
2021/04/13 02:29:50;;;;;;;13.82;9.13;;;;;;;-2.61;86.51;100727.34;5014077;28;20061;-62
2021/04/13 02:32:22;;;;;;;12.20;9.73;;;;;;;-2.36;86.84;100734.09;4996317;28;20046;-61
2021/04/13 02:35:06;;;;;;;10.05;8.32;;;;;;;-2.29;85.20;100729.19;4997047;28;20080;-61
2021/04/13 02:37:32;;;;;;;15.43;9.48;;;;;;;-2.01;84.54;100736.53;4997392;28;20075;-62
2021/04/13 02:40:10;;;;;;;12.15;9.38;;;;;;;-2.04;84.37;100735.94;5013582;28;20488;-62
2021/04/13 02:42:38;;;;;;;13.48;11.15;;;;;;;-1.87;84.37;100735.41;5012262;28;20512;-62
2021/04/13 02:45:11;;;;;;;15.18;10.32;;;;;;;-2.03;84.29;100727.91;5012314;28;20030;-62
2021/04/13 02:47:45;;;;;;;15.95;11.57;;;;;;;-1.74;84.60;100727.34;5011874;28;20034;-61
2021/04/13 02:50:14;;;;;;;20.05;13.63;;;;;;;-1.85;85.55;100730.00;5013143;28;20060;-62
2021/04/13 02:52:42;;;;;;;17.27;12.95;;;;;;;-1.96;86.80;100738.78;4996309;28;20125;-62
2021/04/13 02:55:08;;;;;;;18.88;13.02;;;;;;;-1.97;85.54;100740.56;5011939;28;20022;-62
2021/04/13 02:57:44;;;;;;;15.02;11.40;;;;;;;-2.24;85.00;100740.19;5013696;28;20062;-62
2021/04/13 03:00:37;;;;;;;15.45;11.27;;;;;;;-2.14;85.62;100735.03;4995541;28;20029;-62
2021/04/13 03:03:06;;;;;;;15.13;11.45;;;;;;;-2.08;85.73;100742.41;5013399;28;20026;-62
2021/04/13 03:05:32;;;;;;;17.73;12.57;;;;;;;-2.19;85.27;100748.53;5011692;28;20048;-62
2021/04/13 03:07:58;;;;;;;16.17;10.57;;;;;;;-1.98;85.28;100744.16;4995779;28;20026;-61
2021/04/13 03:10:32;;;;;;;18.83;13.45;;;;;;;-2.03;85.03;100746.31;4995431;28;20053;-62
2021/04/13 03:12:59;;;;;;;18.55;13.20;;;;;;;-2.06;85.75;100751.81;4996169;28;20042;-62
2021/04/13 03:15:27;;;;;;;19.13;14.30;;;;;;;-2.15;86.09;100752.56;4995401;28;20440;-62
2021/04/13 03:17:54;;;;;;;17.95;13.90;;;;;;;-2.20;86.72;100744.22;5011932;28;20033;-62
2021/04/13 03:20:27;;;;;;;17.58;13.27;;;;;;;-1.97;85.35;100751.09;4994940;28;20033;-62
2021/04/13 03:22:54;;;;;;;19.35;14.90;;;;;;;-2.03;85.68;100761.25;5011251;28;20506;-62
2021/04/13 03:25:22;;;;;;;19.90;14.30;;;;;;;-1.97;85.67;100758.97;4994832;28;20061;-62
2021/04/13 03:27:47;;;;;;;18.60;14.30;;;;;;;-2.06;86.41;100759.69;4994988;28;20030;-62
2021/04/13 03:30:23;;;;;;;17.77;14.40;;;;;;;-2.06;86.76;100762.34;4994428;28;20037;-62
2021/04/13 03:32:53;;;;;;;21.98;15.20;;;;;;;-2.04;87.27;100765.69;5011415;28;20033;-61
2021/04/13 03:35:20;;;;;;;18.88;13.57;;;;;;;-2.19;86.05;100770.38;4994951;28;20135;-61
2021/04/13 03:37:46;;;;;;;19.63;14.25;;;;;;;-2.14;86.43;100764.75;5011115;28;20026;-62
2021/04/13 03:40:15;;;;;;;22.15;15.60;;;;;;;-1.35;83.82;100772.31;5011705;28;20034;-62
2021/04/13 03:42:40;;;;;;;17.73;14.10;;;;;;;-1.71;84.42;100769.16;5011242;28;20026;-62
2021/04/13 03:45:07;;;;;;;21.92;15.65;;;;;;;-1.72;86.23;100770.13;5011628;28;20388;-62
2021/04/13 03:47:33;;;;;;;16.67;13.05;;;;;;;-1.80;84.41;100775.16;5010757;28;20057;-62
2021/04/13 03:49:59;;;;;;;17.52;11.90;;;;;;;-1.98;84.63;100773.06;4994880;28;20102;-62
2021/04/13 03:52:29;;;;;;;11.93;9.82;;;;;;;-2.18;84.13;100776.44;5012072;28;20164;-62
2021/04/13 03:54:55;;;;;;;13.80;10.90;;;;;;;-2.28;85.25;100776.34;5011275;28;20385;-62
2021/04/13 03:57:33;;;;;;;16.90;12.15;;;;;;;-2.29;86.40;100776.47;5011169;28;20030;-62
2021/04/13 03:59:59;;;;;;;19.10;12.98;;;;;;;-2.23;86.88;100784.69;5015025;28;20069;-62
2021/04/13 04:02:24;;;;;;;16.33;12.40;;;;;;;-2.16;86.88;100785.03;4998020;28;20131;-62
2021/04/13 04:05:02;;;;;;;19.80;13.30;;;;;;;-2.17;87.33;100786.84;5016351;28;20037;-62
2021/04/13 04:07:38;;;;;;;20.60;15.13;;;;;;;-2.08;89.39;100780.00;5016074;28;20046;-62
2021/04/13 04:10:45;;;;;;;20.83;16.17;;;;;;;-1.95;87.26;100785.09;5015661;28;20018;-63
2021/04/13 04:13:28;;;;;;;19.98;14.10;;;;;;;-2.01;86.74;100791.69;5016458;28;20053;-63
2021/04/13 04:16:20;;;;;;;19.40;14.45;;;;;;;-2.13;87.17;100783.97;5014109;28;20037;-63
2021/04/13 04:18:49;;;;;;;22.48;16.30;;;;;;;-1.97;87.43;100792.31;5016310;28;20105;-62
2021/04/13 04:21:31;;;;;;;23.75;16.70;;;;;;;-1.87;86.87;100789.75;5016071;28;20076;-62
2021/04/13 04:24:07;;;;;;;25.13;17.33;;;;;;;-1.84;86.64;100800.03;5015500;28;20181;-62
2021/04/13 04:26:39;;;;;;;24.38;16.52;;;;;;;-1.78;86.75;100799.53;5015434;28;20444;-62
2021/04/13 04:29:17;;;;;;;22.58;16.27;;;;;;;-1.83;87.27;100796.44;5015141;28;20030;-63
2021/04/13 04:31:43;;;;;;;26.83;19.27;;;;;;;-1.72;88.16;100801.66;5015515;28;20057;-62
2021/04/13 04:34:15;;;;;;;22.35;17.17;;;;;;;-1.82;85.88;100801.56;5014590;28;20022;-63
2021/04/13 04:36:58;;;;;;;24.15;16.55;;;;;;;-1.97;86.09;100792.31;5015596;28;20101;-62
2021/04/13 04:39:30;;;;;;;21.15;13.88;;;;;;;-2.19;85.75;100807.13;5015675;28;20069;-64
2021/04/13 04:42:06;;;;;;;19.77;12.80;;;;;;;-2.45;86.68;100809.16;5015571;28;20033;-63
2021/04/13 04:44:31;;;;;;;27.95;17.90;;;;;;;-2.30;89.49;100808.94;5014082;28;20032;-63
2021/04/13 04:47:00;;;;;;;19.85;15.50;;;;;;;-2.40;87.00;100808.81;5014923;28;20090;-62
2021/04/13 04:49:35;;;;;;;26.55;17.33;;;;;;;-2.19;89.23;100817.66;5013744;28;20026;-62
2021/04/13 04:52:01;;;;;;;28.10;17.70;;;;;;;-2.27;87.84;100816.56;5014738;28;20041;-61
2021/04/13 04:54:26;;;;;;;26.55;17.95;;;;;;;-1.72;88.98;100825.34;5014956;28;20465;-62
2021/04/13 04:56:51;;;;;;;22.15;17.35;;;;;;;-1.19;84.63;100822.72;5014673;28;20121;-62
2021/04/13 04:59:17;;;;;;;19.90;14.60;;;;;;;-0.93;80.64;100822.34;5014829;28;20056;-62
2021/04/13 05:01:42;;;;;;;22.23;15.93;;;;;;;-1.10;81.97;100831.63;5013272;28;20042;-63
2021/04/13 05:04:08;;;;;;;21.70;14.35;;;;;;;-0.15;78.48;100825.34;5013745;28;20037;-62
2021/04/13 05:06:33;;;;;;;18.10;13.82;;;;;;;0.59;74.46;100833.66;5014412;28;20034;-63
2021/04/13 05:08:58;;;;;;;16.58;12.75;;;;;;;0.83;72.08;100835.06;5013208;28;20044;-63
2021/04/13 05:11:24;;;;;;;14.60;11.50;;;;;;;1.27;70.32;100832.75;5013862;28;20042;-63
2021/04/13 05:13:50;;;;;;;13.75;12.15;;;;;;;1.19;70.63;100843.19;4998006;28;20038;-62
2021/04/13 05:16:16;;;;;;;15.60;10.32;;;;;;;1.81;67.78;100836.47;5015025;28;20117;-63
2021/04/13 05:18:41;;;;;;;12.00;10.32;;;;;;;2.37;65.49;100843.41;5013794;28;20499;-63
2021/04/13 05:21:07;;;;;;;12.32;10.82;;;;;;;1.31;70.69;100843.88;5013564;28;20129;-61
2021/04/13 05:23:33;;;;;;;15.50;13.65;;;;;;;3.03;65.21;100844.00;5015183;28;20076;-61
2021/04/13 05:25:59;;;;;;;16.25;10.52;;;;;;;3.45;61.28;100849.41;5013548;28;20029;-61
2021/04/13 05:28:24;;;;;;;13.18;11.07;;;;;;;4.36;57.96;100853.28;5015089;28;20472;-62
2021/04/13 05:30:50;;;;;;;11.27;10.07;;;;;;;3.07;60.01;100855.09;5014501;28;20038;-61
2021/04/13 05:33:16;;;;;;;15.15;12.70;;;;;;;1.54;69.20;100850.47;5015270;28;20057;-63
2021/04/13 05:35:42;;;;;;;16.58;10.82;;;;;;;1.06;69.86;100856.72;5013282;28;20037;-62
2021/04/13 05:38:29;;;;;;;12.95;11.55;;;;;;;0.63;71.69;100865.91;5015333;28;20076;-62
2021/04/13 05:40:57;;;;;;;12.60;10.43;;;;;;;-0.16;73.01;100860.56;5014441;28;20124;-62
2021/04/13 05:43:23;;;;;;;13.13;11.35;;;;;;;-0.24;75.28;100874.41;5013635;28;20030;-62
2021/04/13 05:45:49;;;;;;;14.52;10.80;;;;;;;-0.43;76.35;100883.88;4999561;28;20045;-61
2021/04/13 05:48:15;;;;;;;14.05;10.07;;;;;;;-1.53;80.26;100872.81;5010432;28;20027;-61
2021/04/13 05:50:41;;;;;;;14.85;12.73;;;;;;;-0.93;79.47;100870.53;5009992;28;20511;-63
2021/04/13 05:53:08;;;;;;;15.02;12.77;;;;;;;-0.47;79.08;100873.75;4995290;28;20027;-62
2021/04/13 05:55:34;;;;;;;15.82;13.25;;;;;;;-0.36;77.34;100883.38;4994700;28;20125;-62
2021/04/13 05:58:05;;;;;;;16.33;13.00;;;;;;;-1.10;79.45;100889.53;4995057;28;20034;-62
2021/04/13 06:00:30;;;;;;;18.02;13.98;;;;;;;-1.15;82.06;100883.81;4994426;28;20046;-62
2021/04/13 06:02:56;;;;;;;18.67;15.15;;;;;;;0.02;77.60;100895.03;4994919;28;20385;-62
2021/04/13 06:05:23;;;;;;;19.88;15.30;;;;;;;0.09;76.17;100899.66;4993429;28;20037;-62
2021/04/13 06:07:49;;;;;;;16.35;13.77;;;;;;;0.65;73.21;100898.25;4993509;28;20036;-63
2021/04/13 06:10:14;;;;;;;17.75;12.68;;;;;;;-1.03;80.52;100895.13;4994271;28;20026;-63
2021/04/13 06:12:40;;;;;;;20.60;15.25;;;;;;;-0.47;80.76;100910.63;4994818;28;20042;-63
2021/04/13 06:15:12;;;;;;;25.00;14.50;;;;;;;-0.37;80.13;100908.88;4995476;28;20022;-64
2021/04/13 06:17:37;;;;;;;21.73;17.70;;;;;;;-1.26;83.11;100907.53;5014585;28;20128;-63
2021/04/13 06:20:03;;;;;;;22.80;16.13;;;;;;;-0.84;83.05;100911.06;5014048;28;20469;-63
2021/04/13 06:22:29;;;;;;;19.35;14.38;;;;;;;-0.73;81.66;100918.91;5014342;28;20060;-62
2021/04/13 06:24:54;;;;;;;16.58;12.93;;;;;;;-0.84;81.96;100915.50;5014365;28;20464;-62
2021/04/13 06:27:23;;;;;;;17.75;14.48;;;;;;;-0.45;81.97;100916.59;5012574;28;20053;-63
2021/04/13 06:29:48;;;;;;;17.95;13.68;;;;;;;-0.11;81.11;100921.63;4996761;28;20080;-63
2021/04/13 06:32:14;;;;;;;17.23;12.50;;;;;;;-0.17;80.17;100920.38;5013646;28;20381;-63
2021/04/13 06:34:40;;;;;;;16.92;12.90;;;;;;;0.16;80.88;100931.59;5014292;28;20427;-63
2021/04/13 06:37:06;;;;;;;16.75;11.85;;;;;;;1.15;76.42;100934.25;5013112;28;20042;-63
2021/04/13 06:39:33;;;;;;;16.50;11.50;;;;;;;5.21;60.92;100930.09;5012613;28;20062;-63
2021/04/13 06:42:01;;;;;;;12.05;10.15;;;;;;;7.94;51.94;100940.91;5012081;28;20034;-62
2021/04/13 06:45:00;;;;;;;12.32;9.73;;;;;;;6.45;54.17;100931.53;5013704;28;20469;-63
2021/04/13 06:47:50;;;;;;;12.10;9.82;;;;;;;4.85;59.81;100930.41;5012477;28;20046;-63
2021/04/13 06:50:25;;;;;;;12.75;9.75;;;;;;;4.37;62.56;100936.41;5013331;28;20428;-64
2021/04/13 06:53:02;;;;;;;12.65;10.73;;;;;;;5.84;58.97;100940.03;5013859;28;20113;-63
2021/04/13 06:55:48;;;;;;;12.13;10.43;;;;;;;8.21;50.07;100940.25;5013342;28;20136;-63
2021/04/13 06:58:32;;;;;;;14.07;9.40;;;;;;;8.09;50.23;100947.09;4997347;28;20091;-63
2021/04/13 07:01:16;;;;;;;10.88;9.60;;;;;;;7.54;51.67;100946.47;5012980;28;20072;-64
2021/04/13 07:03:52;;;;;;;10.90;8.90;;;;;;;7.23;52.34;100940.38;5013623;28;20050;-63
2021/04/13 07:06:40;;;;;;;9.65;8.65;;;;;;;7.93;50.06;100948.06;5011980;28;20073;-62
2021/04/13 07:09:15;;;;;;;9.52;8.27;;;;;;;7.16;52.97;100947.44;5012366;28;20033;-62
2021/04/13 07:11:47;;;;;;;10.25;8.27;;;;;;;5.81;57.06;100950.16;5012683;28;20050;-63
2021/04/13 07:14:22;;;;;;;8.95;8.00;;;;;;;4.72;60.12;100954.78;4980147;28;20476;-63
2021/04/13 07:17:02;;;;;;;9.80;8.80;;;;;;;4.27;62.42;100950.66;5011856;28;20157;-62
2021/04/13 07:19:46;;;;;;;8.88;7.97;;;;;;;4.02;62.45;100952.34;5012017;28;20030;-62
2021/04/13 07:22:31;;;;;;;13.20;9.13;;;;;;;5.11;59.21;100956.03;5012868;28;20045;-63
2021/04/13 07:25:20;;;;;;;10.98;9.50;;;;;;;5.05;58.87;100960.16;5012188;28;20026;-63
2021/04/13 07:27:53;;;;;;;10.45;9.32;;;;;;;5.26;58.36;100959.69;5011740;28;20103;-63
2021/04/13 07:30:25;;;;;;;11.65;9.82;;;;;;;4.95;58.07;100957.66;5012978;28;20066;-63
2021/04/13 07:32:57;;;;;;;12.60;10.40;;;;;;;5.12;58.43;100963.84;5015919;28;20121;-63
2021/04/13 07:35:23;;;;;;;12.50;10.68;;;;;;;7.18;51.82;100969.41;5018248;28;20092;-63
2021/04/13 07:37:51;;;;;;;11.20;9.88;;;;;;;8.29;47.72;100971.41;5019863;28;20026;-63
2021/04/13 07:40:26;;;;;;;15.90;10.07;;;;;;;7.35;48.87;100970.97;5019163;28;20030;-62
2021/04/13 07:42:57;;;;;;;11.52;9.52;;;;;;;9.02;46.40;100963.44;5019959;28;20084;-63
2021/04/13 07:45:30;;;;;;;11.73;9.65;;;;;;;9.24;44.24;100973.13;5019242;28;20092;-63
2021/04/13 07:48:13;;;;;;;10.85;9.65;;;;;;;8.27;48.27;100970.75;5019642;28;20081;-63
2021/04/13 07:50:44;;;;;;;11.68;9.85;;;;;;;8.13;47.94;100963.56;5018130;28;20034;-63
2021/04/13 07:53:58;;;;;;;12.95;10.18;;;;;;;8.81;46.86;100967.75;5019777;28;20034;-63
2021/04/13 07:56:50;;;;;;;11.45;10.07;;;;;;;9.85;44.38;100963.75;4988017;28;20076;-63
2021/04/13 07:59:31;;;;;;;11.70;9.35;;;;;;;9.88;43.98;100963.34;5019323;28;20475;-63
2021/04/13 08:01:56;;;;;;;11.88;9.88;;;;;;;6.59;53.69;100965.44;5017984;28;20041;-62
2021/04/13 08:04:24;;;;;;;11.95;9.65;;;;;;;7.62;50.84;100968.75;5019521;28;20507;-63
2021/04/13 08:07:01;;;;;;;13.45;9.15;;;;;;;8.91;46.33;100963.94;5017680;28;20045;-63
2021/04/13 08:09:53;;;;;;;12.70;9.68;;;;;;;9.55;46.13;100963.94;5018333;28;20108;-63
2021/04/13 08:12:31;;;;;;;10.63;9.52;;;;;;;9.81;43.88;100962.47;5017611;28;20049;-63
2021/04/13 08:14:56;;;;;;;11.95;8.68;;;;;;;8.20;47.56;100964.47;5018524;28;20105;-62
2021/04/13 08:17:23;;;;;;;11.77;8.50;;;;;;;9.45;47.58;100968.78;5018978;28;20554;-63
2021/04/13 08:20:09;;;;;;;12.18;9.13;;;;;;;9.87;44.63;100964.41;5018130;28;20627;-63
2021/04/13 08:22:54;;;;;;;10.80;8.35;;;;;;;10.01;43.24;100968.81;5002484;28;20088;-63
2021/04/13 08:25:45;;;;;;;11.30;7.50;;;;;;;8.82;46.94;100961.38;5019163;28;20104;-62
2021/04/13 08:28:36;;;;;;;10.77;7.93;;;;;;;10.39;43.53;100962.28;5019337;28;20026;-63
2021/04/13 08:34:33;;;;;;;10.95;7.00;;;;;;;10.61;43.23;100971.84;4965868;28;20039;-63
2021/04/13 08:37:24;;;;;;;10.20;6.28;;;;;;;10.27;41.98;100967.31;5018830;28;20050;-63
2021/04/13 08:40:13;;;;;;;9.07;6.35;;;;;;;7.64;47.41;100972.91;5019057;28;20076;-63
2021/04/13 08:43:13;;;;;;;10.68;7.07;;;;;;;7.70;50.24;100966.81;5018867;28;20084;-63
2021/04/13 08:45:41;;;;;;;15.00;7.15;;;;;;;6.84;53.52;100957.28;5013757;28;20429;-63
2021/04/13 08:48:32;;;;;;;11.40;7.57;;;;;;;7.19;54.38;100960.41;5014797;28;20022;-63
2021/04/13 08:51:12;;;;;;;14.55;8.57;;;;;;;6.41;57.38;100968.31;5015629;28;20037;-63
2021/04/13 08:53:49;;;;;;;14.15;7.88;;;;;;;6.28;56.20;100954.75;5016170;28;20109;-63
2021/04/13 08:56:25;;;;;;;11.57;7.78;;;;;;;5.91;56.48;100960.63;5014359;28;20034;-62
2021/04/13 08:58:55;;;;;;;11.82;8.50;;;;;;;6.14;56.71;100961.63;4998187;28;20463;-62
2021/04/13 09:01:26;;;;;;;12.38;8.27;;;;;;;6.10;57.50;100964.78;5015351;28;20058;-62
2021/04/13 09:03:52;;;;;;;16.20;7.88;;;;;;;5.91;58.16;100968.63;5015552;28;20037;-63
2021/04/13 09:06:56;;;;;;;12.13;7.68;;;;;;;5.96;59.63;100958.31;5014116;28;20034;-62
2021/04/13 09:09:38;;;;;;;12.57;7.60;;;;;;;6.09;57.90;100963.97;4983693;28;20049;-63
2021/04/13 09:12:07;;;;;;;11.75;7.70;;;;;;;5.82;58.09;100965.97;4998842;28;20069;-63
2021/04/13 09:14:48;;;;;;;11.18;8.30;;;;;;;4.84;60.79;100960.63;5014493;28;20490;-62
2021/04/13 09:17:22;;;;;;;13.57;8.13;;;;;;;5.12;59.87;100965.66;5014959;28;20034;-62
2021/04/13 09:20:24;;;;;;;17.77;9.25;;;;;;;4.87;60.79;100965.63;5015375;28;20037;-62
2021/04/13 09:23:14;;;;;;;12.95;7.97;;;;;;;5.19;60.94;100966.66;4979036;28;20155;-63
2021/04/13 09:25:52;;;;;;;10.57;7.87;;;;;;;4.63;62.92;100960.25;5015112;28;20056;-62
2021/04/13 09:28:22;;;;;;;12.15;6.20;;;;;;;4.78;62.36;100974.56;5015232;28;20633;-62
2021/04/13 09:30:49;;;;;;;10.53;6.33;;;;;;;4.56;63.96;100969.84;5013632;28;20041;-63
2021/04/13 09:33:21;;;;;;;12.80;5.85;;;;;;;4.44;63.90;100972.81;5014886;28;20543;-62
2021/04/13 09:35:59;;;;;;;11.88;6.15;;;;;;;4.90;62.91;100977.75;5013349;28;20038;-63
2021/04/13 09:38:38;;;;;;;10.52;5.72;;;;;;;5.33;62.04;100978.47;5015000;28;20049;-63
2021/04/13 09:41:09;;;;;;;9.10;5.78;;;;;;;5.26;61.73;100972.97;5014384;28;20092;-63
2021/04/13 09:43:53;;;;;;;10.65;6.22;;;;;;;4.85;62.88;100972.09;5013602;28;20041;-62
2021/04/13 09:46:40;;;;;;;9.95;4.40;;;;;;;4.39;62.72;100975.06;5014611;28;20038;-63
2021/04/13 09:49:37;;;;;;;11.38;5.35;;;;;;;4.42;62.63;100973.91;5013750;28;20568;-63
2021/04/13 09:52:07;;;;;;;12.07;5.43;;;;;;;4.45;63.44;100971.78;5014230;28;20128;-62
2021/04/13 09:54:37;;;;;;;11.43;5.70;;;;;;;4.60;63.55;100971.19;5015015;28;20025;-63
2021/04/13 09:57:27;;;;;;;12.52;3.58;;;;;;;4.96;61.14;100964.63;5013000;28;20096;-63
2021/04/13 10:00:06;;;;;;;11.50;4.47;;;;;;;4.92;62.89;100965.97;5013249;28;20064;-63
2021/04/13 10:02:47;;;;;;;7.72;4.07;;;;;;;5.34;60.27;100970.34;5013166;28;20038;-62
2021/04/13 10:05:14;;;;;;;9.38;4.35;;;;;;;5.33;59.56;100967.84;5014249;28;20034;-63
2021/04/13 10:07:59;;;;;;;11.90;4.85;;;;;;;5.80;59.01;100959.16;5014555;28;20026;-63
2021/04/13 10:10:34;;;;;;;7.50;4.20;;;;;;;5.06;59.86;100966.31;4996628;28;20042;-63
2021/04/13 10:13:30;;;;;;;11.82;4.30;;;;;;;4.96;61.79;100951.34;5013009;28;20463;-63
2021/04/13 10:16:08;;;;;;;7.82;3.75;;;;;;;5.08;62.05;100956.34;5014068;28;20046;-63
2021/04/13 10:18:50;;;;;;;9.40;3.20;;;;;;;4.83;61.87;100950.16;5012775;28;20045;-63
2021/04/13 10:21:38;;;;;;;11.02;3.85;;;;;;;5.68;60.02;100956.03;5012841;28;20124;-63
2021/04/13 10:24:09;;;;;;;8.90;3.75;;;;;;;5.73;59.94;100951.03;5014498;28;20100;-63
2021/04/13 10:26:41;;;;;;;9.98;3.42;;;;;;;5.95;57.11;100946.03;4995856;28;20042;-63
2021/04/13 10:29:19;;;;;;;9.05;3.35;;;;;;;6.96;56.29;100952.41;5012994;28;20033;-63
2021/04/13 10:32:15;;;;;;;10.80;3.65;;;;;;;7.57;53.40;100948.75;5013622;28;20096;-63
2021/04/13 10:35:09;;;;;;;8.70;3.30;;;;;;;7.38;52.83;100943.91;5013577;28;20029;-63
2021/04/13 10:37:46;;;;;;;8.35;2.55;;;;;;;7.18;51.25;100940.09;5013773;28;20496;-63
2021/04/13 10:40:14;;;;;;;8.00;2.95;;;;;;;6.91;50.73;100942.25;5013573;28;20064;-63
2021/04/13 10:42:55;;;;;;;7.97;2.75;;;;;;;6.90;48.00;100936.09;5012725;28;20065;-63
2021/04/13 10:45:35;;;;;;;6.15;2.95;;;;;;;6.47;49.99;100930.38;5012346;28;20054;-63
2021/04/13 10:48:43;;;;;;;9.43;3.10;;;;;;;5.83;52.10;100935.69;5013812;28;20481;-63
2021/04/13 10:51:36;;;;;;;6.38;2.95;;;;;;;6.24;51.13;100930.31;5012430;28;20042;-63
2021/04/13 10:54:08;;;;;;;7.65;2.50;;;;;;;5.97;48.97;100925.41;5013607;28;20112;-63
2021/04/13 10:57:07;;;;;;;5.55;3.17;;;;;;;5.77;52.04;100933.72;5013210;28;20044;-63
2021/04/13 10:59:54;;;;;;;5.72;3.15;;;;;;;5.82;52.17;100926.06;5013813;28;20451;-64
2021/04/13 11:02:44;;;;;;;6.88;3.20;;;;;;;6.08;51.09;100925.03;5011813;28;20088;-63
2021/04/13 11:05:38;;;;;;;7.45;2.95;;;;;;;5.67;53.58;100933.09;5013558;28;20036;-64
2021/04/13 11:08:37;;;;;;;5.47;2.78;;;;;;;5.61;51.48;100928.41;5013327;28;20037;-63
2021/04/13 11:11:24;;;;;;;8.32;3.45;;;;;;;6.14;49.71;100929.69;5012454;28;20108;-63
2021/04/13 11:14:16;;;;;;;5.93;3.20;;;;;;;7.18;49.64;100938.25;5013799;28;20029;-63
2021/04/13 11:17:00;;;;;;;6.22;2.92;;;;;;;5.71;49.40;100939.72;5013321;28;20052;-63
2021/04/13 11:19:39;;;;;;;5.78;2.88;;;;;;;5.62;49.25;100924.78;5012790;28;20042;-63
2021/04/13 11:22:07;;;;;;;9.15;3.08;;;;;;;5.81;48.55;100924.38;5011844;28;20115;-63
2021/04/13 11:24:45;;;;;;;5.50;2.70;;;;;;;5.66;51.37;100920.75;5013556;28;20037;-62
2021/04/13 11:27:44;;;;;;;6.10;2.92;;;;;;;6.07;49.59;100917.22;4995065;28;20053;-63
2021/04/13 11:30:44;;;;;;;8.20;2.75;;;;;;;6.58;48.28;100915.81;5012890;28;20037;-63
2021/04/13 11:33:09;;;;;;;5.32;2.85;;;;;;;6.10;49.26;100917.69;5013154;28;20034;-63
2021/04/13 11:35:37;;;;;;;7.03;3.53;;;;;;;6.06;48.94;100911.03;5012515;28;20076;-63
2021/04/13 11:38:23;;;;;;;5.80;2.70;;;;;;;7.28;47.42;100922.00;5012077;28;20476;-63
2021/04/13 11:41:06;;;;;;;9.48;4.20;;;;;;;7.43;47.84;100920.19;5011701;28;20100;-63
2021/04/13 11:43:38;;;;;;;7.53;3.40;;;;;;;7.62;47.07;100918.03;5013256;28;20062;-63
2021/04/13 11:46:07;;;;;;;5.28;2.75;;;;;;;7.68;47.48;100915.47;4995642;28;20045;-63
2021/04/13 11:48:54;;;;;;;6.75;2.50;;;;;;;7.04;47.00;100910.53;4995851;28;20029;-63
2021/04/13 11:51:28;;;;;;;7.15;2.83;;;;;;;8.02;45.78;100914.09;5012559;28;20041;-63
2021/04/13 11:53:54;;;;;;;6.13;3.05;;;;;;;8.05;44.09;100900.38;5013069;28;20065;-63
2021/04/13 11:56:23;;;;;;;6.47;2.80;;;;;;;7.81;44.05;100906.81;4995228;28;20046;-65
2021/04/13 11:59:17;;;;;;;5.80;2.58;;;;;;;7.08;45.07;100906.47;5013250;28;20037;-63
2021/04/13 12:01:47;;;;;;;6.82;2.75;;;;;;;7.35;44.40;100901.59;5012593;28;20045;-63
2021/04/13 12:04:15;;;;;;;5.22;2.42;;;;;;;7.03;45.58;100902.69;4995790;28;20045;-62